createdAt,value
2018-07-20T00:01:46.343Z,4.60
2018-07-20T00:04:15.183Z,4.67
2018-07-20T00:06:43.637Z,4.70
2018-07-20T00:09:12.148Z,4.57
2018-07-20T00:11:40.617Z,4.00
2018-07-20T00:14:09.094Z,4.63
2018-07-20T00:16:37.619Z,4.10
2018-07-20T00:19:06.031Z,4.43
2018-07-20T00:21:34.571Z,4.60
2018-07-20T00:24:03.061Z,4.53
2018-07-20T00:26:31.511Z,4.67
2018-07-20T00:28:59.963Z,4.47
2018-07-20T00:31:28.463Z,5.17
2018-07-20T00:33:57.951Z,4.63
2018-07-20T00:36:26.489Z,4.43
2018-07-20T00:38:54.935Z,4.43
2018-07-20T00:41:23.395Z,4.50
2018-07-20T00:43:51.907Z,4.47
2018-07-20T00:46:20.383Z,4.63
2018-07-20T00:48:48.797Z,4.20
2018-07-20T00:51:17.247Z,4.00
2018-07-20T00:53:45.807Z,4.40
2018-07-20T00:56:14.295Z,4.77
2018-07-20T00:58:42.821Z,4.80
2018-07-20T01:01:11.270Z,4.63
2018-07-20T01:03:39.753Z,4.50
2018-07-20T01:06:08.392Z,4.40
2018-07-20T01:08:36.573Z,4.67
2018-07-20T01:11:05.261Z,5.03
2018-07-20T01:13:33.370Z,4.77
2018-07-20T01:16:01.898Z,4.40
2018-07-20T01:18:30.058Z,4.93
2018-07-20T01:20:58.527Z,4.90
2018-07-20T01:23:26.999Z,4.70
2018-07-20T01:25:55.454Z,4.90
2018-07-20T01:28:23.968Z,5.27
2018-07-20T01:30:52.442Z,5.27
2018-07-20T01:33:20.917Z,5.10
2018-07-20T01:35:49.404Z,4.70
2018-07-20T01:38:17.896Z,5.50
2018-07-20T01:40:46.376Z,5.20
2018-07-20T01:43:14.860Z,4.60
2018-07-20T01:45:43.345Z,5.33
2018-07-20T01:48:11.812Z,5.40
2018-07-20T01:50:41.315Z,5.33
2018-07-20T01:53:11.984Z,5.10
2018-07-20T01:55:40.427Z,4.80
2018-07-20T01:58:09.949Z,5.20
2018-07-20T02:00:38.416Z,5.27
2018-07-20T02:03:08.263Z,5.27
2018-07-20T02:05:36.734Z,5.40
2018-07-20T02:08:05.306Z,5.37
2018-07-20T02:10:33.788Z,5.50
2018-07-20T02:13:02.241Z,4.73
2018-07-20T02:15:30.755Z,5.00
2018-07-20T02:17:59.231Z,5.47
2018-07-20T02:20:27.702Z,5.43
2018-07-20T02:22:57.196Z,5.10
2018-07-20T02:25:25.724Z,5.43
2018-07-20T02:27:54.168Z,5.27
2018-07-20T02:30:22.668Z,5.10
2018-07-20T02:32:51.160Z,4.27
2018-07-20T02:35:19.628Z,4.90
2018-07-20T02:37:48.111Z,4.87
2018-07-20T02:40:16.500Z,4.93
2018-07-20T02:42:44.965Z,5.27
2018-07-20T02:45:13.441Z,4.53
2018-07-20T02:47:41.937Z,6.30
2018-07-20T02:50:10.340Z,8.33
2018-07-20T02:52:39.708Z,8.03
2018-07-20T02:55:09.105Z,7.13
2018-07-20T02:57:37.611Z,6.07
2018-07-20T03:00:06.107Z,7.97
2018-07-20T03:02:34.556Z,9.07
2018-07-20T03:05:03.125Z,7.73
2018-07-20T03:07:31.843Z,7.77
2018-07-20T03:10:00.323Z,7.83
2018-07-20T03:12:28.816Z,8.23
2018-07-20T03:14:57.309Z,8.20
2018-07-20T03:17:25.743Z,8.33
2018-07-20T03:19:54.312Z,9.40
2018-07-20T03:22:22.857Z,8.90
2018-07-20T03:24:51.317Z,8.93
2018-07-20T03:27:19.792Z,9.40
2018-07-20T03:30:51.966Z,9.67
2018-07-20T03:33:20.461Z,8.63
2018-07-20T03:35:48.916Z,10.37
2018-07-20T03:38:17.411Z,8.90
2018-07-20T03:40:45.883Z,8.97
2018-07-20T03:43:15.427Z,9.07
2018-07-20T03:45:43.879Z,9.70
2018-07-20T03:48:12.355Z,9.20
2018-07-20T03:50:40.857Z,9.20
2018-07-20T03:53:09.331Z,10.13
2018-07-20T03:55:37.835Z,10.00
2018-07-20T03:58:06.304Z,9.50
2018-07-20T04:00:34.800Z,10.10
2018-07-20T04:03:03.257Z,9.53
2018-07-20T04:05:31.739Z,9.60
2018-07-20T04:09:03.283Z,9.30
2018-07-20T04:11:31.783Z,10.00
2018-07-20T04:14:00.271Z,12.03
2018-07-20T04:16:28.736Z,10.93
2018-07-20T04:18:57.213Z,9.87
2018-07-20T04:21:25.715Z,11.70
2018-07-20T04:23:54.167Z,9.37
2018-07-20T04:26:22.659Z,13.10
2018-07-20T04:28:51.144Z,10.43
2018-07-20T04:31:19.840Z,10.77
2018-07-20T04:35:12.645Z,11.70
2018-07-20T04:37:41.079Z,10.43
2018-07-20T04:40:09.579Z,10.90
2018-07-20T04:42:38.139Z,11.47
2018-07-20T04:45:06.948Z,10.90
2018-07-20T04:47:35.437Z,10.80
2018-07-20T04:50:04.818Z,11.10
2018-07-20T04:52:33.303Z,11.10
2018-07-20T04:55:01.691Z,10.97
2018-07-20T04:57:30.171Z,11.40
2018-07-20T04:59:58.741Z,11.03
2018-07-20T05:02:27.292Z,10.97
2018-07-20T05:04:55.852Z,10.87
2018-07-20T05:07:24.011Z,10.63
2018-07-20T05:09:52.515Z,11.30
2018-07-20T05:12:20.931Z,11.60
2018-07-20T05:14:49.443Z,11.70
2018-07-20T05:17:17.890Z,11.10
2018-07-20T05:19:46.395Z,11.70
2018-07-20T05:22:14.879Z,11.70
2018-07-20T05:24:43.395Z,10.67
2018-07-20T05:27:11.762Z,12.50
2018-07-20T05:29:40.215Z,12.07
2018-07-20T05:32:08.806Z,12.50
2018-07-20T05:34:37.275Z,11.00
2018-07-20T05:37:05.846Z,12.73
2018-07-20T05:39:34.335Z,11.90
2018-07-20T05:42:02.868Z,11.57
2018-07-20T05:44:31.026Z,12.97
2018-07-20T05:46:59.483Z,12.87
2018-07-20T05:49:27.964Z,11.97
2018-07-20T05:51:56.460Z,12.43
2018-07-20T05:54:24.994Z,12.07
2018-07-20T05:56:53.439Z,12.57
2018-07-20T05:59:21.947Z,12.10
2018-07-20T06:01:50.383Z,11.93
2018-07-20T06:04:18.856Z,11.00
2018-07-20T06:06:47.351Z,12.10
2018-07-20T06:09:15.804Z,12.10
2018-07-20T06:11:44.319Z,10.80
2018-07-20T06:14:12.843Z,12.03
2018-07-20T06:16:40.989Z,12.30
2018-07-20T06:19:09.447Z,11.97
2018-07-20T06:21:37.962Z,11.80
2018-07-20T06:24:06.504Z,12.33
2018-07-20T06:26:34.979Z,12.00
2018-07-20T06:29:03.500Z,12.00
2018-07-20T06:31:31.960Z,11.67
2018-07-20T06:34:00.448Z,11.63
2018-07-20T06:36:28.948Z,12.77
2018-07-20T06:38:57.444Z,12.03
2018-07-20T06:41:25.631Z,11.70
2018-07-20T06:43:54.086Z,13.27
2018-07-20T06:46:22.571Z,13.60
2018-07-20T06:48:51.008Z,12.67
2018-07-20T06:51:19.535Z,11.43
2018-07-20T06:53:47.979Z,12.90
2018-07-20T06:56:16.388Z,12.80
2018-07-20T06:58:44.832Z,12.90
2018-07-20T07:01:13.330Z,12.37
2018-07-20T07:03:41.817Z,11.10
2018-07-20T07:06:10.232Z,13.37
2018-07-20T07:08:38.386Z,13.67
2018-07-20T07:11:07.090Z,13.93
2018-07-20T07:13:35.241Z,15.10
2018-07-20T07:16:03.747Z,17.37
2018-07-20T07:18:31.902Z,14.50
2018-07-20T07:21:00.348Z,15.20
2018-07-20T07:23:28.865Z,15.40
2018-07-20T07:25:57.308Z,14.80
2018-07-20T07:28:25.820Z,15.40
2018-07-20T07:30:54.318Z,15.47
2018-07-20T07:33:22.773Z,14.87
2018-07-20T07:35:51.390Z,14.00
2018-07-20T07:38:19.542Z,13.50
2018-07-20T07:40:48.444Z,14.57
2018-07-20T07:43:17.029Z,14.43
2018-07-20T07:47:10.002Z,13.43
2018-07-20T07:49:38.448Z,14.97
2018-07-20T07:52:07.350Z,14.60
2018-07-20T07:54:35.831Z,15.17
2018-07-20T07:57:04.375Z,26.70
2018-07-20T07:59:32.882Z,15.93
2018-07-20T08:02:01.379Z,14.90
2018-07-20T08:04:30.075Z,14.50
2018-07-20T08:06:58.539Z,15.70
2018-07-20T08:09:27.026Z,15.73
2018-07-20T08:11:55.606Z,16.83
2018-07-20T08:14:24.102Z,15.97
2018-07-20T08:16:52.684Z,16.40
2018-07-20T08:19:21.167Z,17.57
2018-07-20T08:21:49.639Z,18.10
2018-07-20T08:24:18.058Z,18.60
2018-07-20T08:26:46.479Z,17.97
2018-07-20T08:29:14.990Z,20.00
2018-07-20T08:31:43.475Z,16.33
2018-07-20T08:34:11.951Z,18.00
2018-07-20T08:36:40.451Z,18.43
2018-07-20T08:39:09.922Z,18.20
2018-07-20T08:41:38.831Z,19.70
2018-07-20T08:44:07.336Z,19.23
2018-07-20T08:46:35.536Z,19.67
2018-07-20T08:49:03.975Z,20.63
2018-07-20T08:51:32.499Z,20.80
2018-07-20T08:54:01.028Z,20.50
2018-07-20T08:56:29.423Z,21.00
2018-07-20T08:58:57.900Z,21.10
2018-07-20T09:02:50.880Z,22.97
2018-07-20T09:05:19.315Z,25.73
2018-07-20T09:07:47.804Z,22.33
2018-07-20T09:10:16.310Z,26.13
2018-07-20T09:12:44.817Z,19.03
2018-07-20T09:15:12.978Z,19.00
2018-07-20T09:17:41.415Z,19.50
2018-07-20T09:20:10.100Z,22.10
2018-07-20T09:22:38.711Z,18.93
2018-07-20T09:25:07.495Z,20.23
2018-07-20T09:27:36.021Z,20.60
2018-07-20T09:30:04.528Z,20.37
2018-07-20T09:32:33.039Z,21.83
2018-07-20T09:35:01.508Z,17.93
2018-07-20T09:37:31.055Z,21.90
2018-07-20T09:39:59.503Z,20.60
2018-07-20T09:42:28.042Z,23.30
2018-07-20T09:44:56.586Z,20.13
2018-07-20T09:47:25.155Z,20.07
2018-07-20T09:49:53.634Z,18.07
2018-07-20T09:52:23.291Z,15.97
2018-07-20T09:54:51.498Z,16.00
2018-07-20T09:57:20.033Z,17.57
2018-07-20T09:59:48.536Z,18.90
2018-07-20T10:02:16.946Z,15.93
2018-07-20T10:04:45.476Z,15.93
2018-07-20T10:07:13.931Z,19.80
2018-07-20T10:09:42.419Z,16.57
2018-07-20T10:12:10.899Z,15.47
2018-07-20T10:14:39.299Z,17.27
2018-07-20T10:17:07.767Z,15.37
2018-07-20T10:19:36.227Z,12.67
2018-07-20T10:22:05.155Z,12.37
2018-07-20T10:24:33.638Z,12.70
2018-07-20T10:27:02.095Z,9.80
2018-07-20T10:29:30.577Z,9.13
2018-07-20T10:31:59.063Z,9.30
2018-07-20T10:34:27.523Z,8.93
2018-07-20T10:36:56.028Z,9.80
2018-07-20T10:39:24.487Z,10.80
2018-07-20T10:41:53.056Z,10.70
2018-07-20T10:44:21.876Z,12.30
2018-07-20T10:46:50.391Z,12.33
2018-07-20T10:49:18.873Z,11.77
2018-07-20T10:51:47.332Z,11.60
2018-07-20T10:54:15.883Z,11.23
2018-07-20T10:56:44.432Z,10.57
2018-07-20T10:59:12.894Z,11.73
2018-07-20T11:01:41.490Z,12.40
2018-07-20T11:04:11.033Z,12.10
2018-07-20T11:06:39.567Z,11.77
2018-07-20T11:09:08.963Z,11.83
2018-07-20T11:11:37.660Z,10.40
2018-07-20T11:14:06.128Z,10.63
2018-07-20T11:16:34.817Z,9.13
2018-07-20T11:19:03.274Z,9.70
2018-07-20T11:21:31.740Z,9.70
2018-07-20T11:24:00.150Z,8.93
2018-07-20T11:26:28.615Z,8.83
2018-07-20T11:28:57.130Z,6.27
2018-07-20T11:31:25.693Z,8.27
2018-07-20T11:34:57.395Z,8.53
2018-07-20T11:37:25.845Z,6.20
2018-07-20T11:39:54.322Z,5.30
2018-07-20T11:42:22.895Z,5.57
2018-07-20T11:44:51.377Z,11.70
2018-07-20T11:47:19.875Z,8.40
2018-07-20T11:49:48.455Z,14.80
2018-07-20T11:52:16.935Z,12.73
2018-07-20T11:54:45.374Z,6.57
2018-07-20T11:57:13.815Z,6.20
2018-07-20T11:59:42.279Z,6.00
2018-07-20T12:02:10.772Z,5.43
2018-07-20T12:04:39.259Z,4.47
2018-07-20T12:07:07.736Z,5.57
2018-07-20T12:09:36.210Z,5.87
2018-07-20T12:12:04.719Z,5.10
2018-07-20T12:14:32.877Z,4.90
2018-07-20T12:17:01.376Z,5.00
2018-07-20T12:19:29.555Z,5.00
2018-07-20T12:21:57.981Z,5.27
2018-07-20T12:24:26.486Z,5.93
2018-07-20T12:26:54.967Z,6.00
2018-07-20T12:29:23.431Z,5.30
2018-07-20T12:31:52.873Z,5.00
2018-07-20T12:34:21.339Z,7.40
2018-07-20T12:36:49.739Z,5.97
2018-07-20T12:39:17.942Z,5.00
2018-07-20T12:41:46.343Z,5.10
2018-07-20T12:44:14.834Z,5.90
2018-07-20T12:46:43.419Z,6.47
2018-07-20T12:49:11.863Z,5.70
2018-07-20T12:51:40.300Z,6.30
2018-07-20T12:54:08.805Z,6.70
2018-07-20T12:56:37.272Z,5.67
2018-07-20T12:59:06.240Z,8.70
2018-07-20T13:01:34.740Z,10.57
2018-07-20T13:04:03.249Z,9.73
2018-07-20T13:06:31.815Z,9.30
2018-07-20T13:09:00.288Z,11.77
2018-07-20T13:11:28.737Z,10.47
2018-07-20T13:13:57.545Z,10.20
2018-07-20T13:16:26.073Z,6.97
2018-07-20T13:18:54.235Z,7.30
2018-07-20T13:21:22.730Z,6.93
2018-07-20T13:23:51.016Z,9.60
2018-07-20T13:26:19.483Z,8.20
